Nearby METAR Reports

 

KRUT - Rutland State, Vermont, USA
Distance from station: NW 10mi, 17km
Updated: Sat, 16-Feb-2019 8:56pm EST
Clear
Clear
 Wind from NNW
Wind: NNW 9 mph , 15 km/h, Gust: 17 mph , 28 km/h
Temperature: 23°F , -5°C
Wind Chill: 13°F , -11°C
Dew Point: 10°F , -12°C
Humidity: 58%
Barometer: 29.97 inHg , 1014.9 hPa
Clouds: Clear
Visibility: 10 miles , 16 km
2019/02/17 01:56 KRUT 170156Z AUTO 33008G15KT 10SM CLR M05/M12 A2997 RMK AO2 SLP168 T10501117 FZRANO $
KVSF - Springfield, Vermont, USA
Distance from station: ESE 15mi, 23km
Updated: Sat, 16-Feb-2019 8:54pm EST
Clear
Clear
 Wind from N
Wind: N 7 mph , 11 km/h
Temperature: 27°F , -3°C
Wind Chill: 19°F , -7°C
Dew Point: 10°F , -12°C
Humidity: 50%
Barometer: 29.96 inHg , 1014.6 hPa
Clouds: Clear
Visibility: 10 miles , 16 km
2019/02/17 01:54 KVSF 170154Z AUTO 36006KT 10SM CLR M03/M12 A2996 RMK AO2 SLP154 T10331122
 
KLEB - Lebanon, New Hampshire, USA
Distance from station: ENE 28mi, 46km
Updated: Sat, 16-Feb-2019 8:53pm EST
Clear
Clear
 Wind from N
Wind: N 8 mph , 13 km/h
Temperature: 23°F , -5°C
Wind Chill: 14°F , -10°C
Dew Point: 9°F , -13°C
Humidity: 54%
Barometer: 29.97 inHg , 1014.9 hPa
Clouds: Clear
Visibility: 10 miles , 16 km
2019/02/17 01:53 KLEB 170153Z 35007KT 10SM CLR M05/M13 A2997 RMK AO2 SLP158 T10501133
K6B0 - Middlebury, Vermont, USA
Distance from station: NNW 42mi, 67km
Updated: Sat, 16-Feb-2019 9:15pm EST
Clear
Clear
 Wind from N
Wind: N 9 mph , 15 km/h
Temperature: 23°F , -5°C
Wind Chill: 13°F , -11°C
Dew Point: 9°F , -13°C
Humidity: 54%
Barometer: 29.99 inHg , 1015.6 hPa
Clouds: Clear
Visibility: 10 miles , 16 km
2019/02/17 02:15 K6B0 170215Z AUTO 35008KT 10SM CLR M05/M13 A2999 RMK AO2 T10551127
 
KGFL - Glens Falls, New York, USA
Distance from station: W 42mi, 68km
Updated: Sat, 16-Feb-2019 8:53pm EST
Clear
Clear
 Wind from NNE
Wind: NNE 9 mph , 15 km/h
Temperature: 25°F , -4°C
Wind Chill: 16°F , -9°C
Dew Point: 10°F , -12°C
Humidity: 54%
Barometer: 30.00 inHg , 1015.9 hPa
Clouds: Clear
Visibility: 10 miles , 16 km
2019/02/17 01:53 KGFL 170153Z AUTO 02008KT 10SM CLR M04/M12 A3000 RMK AO2 SLP168 T10391122
KDDH - Bennington, Vermont, USA
Distance from station: SSW 43mi, 69km
Updated: Sat, 16-Feb-2019 8:54pm EST
Clear
Clear
 Wind from NNW
Wind: NNW 8 mph , 13 km/h
Temperature: 25°F , -4°C
Wind Chill: 16°F , -9°C
Dew Point: 10°F , -12°C
Humidity: 54%
Barometer: 29.96 inHg , 1014.6 hPa
Clouds: Clear
Visibility: 10 miles , 16 km
2019/02/17 01:54 KDDH 170154Z AUTO 33007KT 10SM CLR M04/M12 A2996 RMK AO2 SLP156 T10441117
 
KEEN - Keene/Dillant, New Hampshire, USA
Distance from station: SE 46mi, 73km
Updated: Sat, 16-Feb-2019 8:56pm EST
Clear
Clear
 Wind from NNW
Wind: NNW 14 mph , 22 km/h
Temperature: 28°F , -2°C
Wind Chill: 17°F , -8°C
Dew Point: 16°F , -9°C
Humidity: 59%
Barometer: 29.94 inHg , 1013.9 hPa
Clouds: Clear
Visibility: 10 miles , 16 km
2019/02/17 01:56 KEEN 170156Z AUTO 33012KT 10SM CLR M02/M09 A2994 RMK AO2 SLP159 T10221094 FZRANO $
KALB - Albany, New York, USA
Distance from station: SW 69mi, 111km
Updated: Sat, 16-Feb-2019 8:51pm EST
Partly cloudy
Partly cloudy
 Wind from WNW
Wind: WNW 10 mph , 17 km/h
Temperature: 25°F , -4°C
Wind Chill: 15°F , -9°C
Dew Point: 12°F , -11°C
Humidity: 59%
Barometer: 30.03 inHg , 1016.9 hPa
Clouds: Partly cloudy
Visibility: 10 miles , 16 km
Cloud details: Partly cloudy 26000 ft
2019/02/17 01:51 KALB 170151Z 30009KT 10SM SCT260 M04/M11 A3003 RMK AO2 SLP171 T10391111
 
KSCH - Schenectady Airp, New York, USA
Distance from station: SW 69mi, 111km
Updated: Sat, 16-Feb-2019 8:45pm EST
Clear
Clear
 Wind from WNW
Wind: WNW 10 mph , 17 km/h
Temperature: 23°F , -5°C
Wind Chill: 13°F , -11°C
Dew Point: 14°F , -10°C
Humidity: 68%
Barometer: 30.02 inHg , 1016.6 hPa
Clouds: Clear
Visibility: 10 miles , 16 km
2019/02/17 01:45 KSCH 170145Z 29009KT 10SM CLR M05/M10 A3002 RMK LAST
KLCI - Laconia Muni, New Hampshire, USA
Distance from station: E 69mi, 112km
Updated: Sat, 16-Feb-2019 8:56pm EST
Clear
Clear
 Wind from varies
Wind: varies 5 mph , 7 km/h
Temperature: 23°F , -5°C
Wind Chill: 17°F , -8°C
Dew Point: 10°F , -12°C
Humidity: 58%
Barometer: 29.93 inHg , 1013.5 hPa
Clouds: Clear
Visibility: 10 miles , 16 km
2019/02/17 01:56 KLCI 170156Z AUTO VRB04KT 10SM CLR M05/M12 A2993 RMK AO2 SLP156 T10501117 FZRANO $
 
KBTV - Burlington, Vermont, USA
Distance from station: NNW 74mi, 120km
Updated: Sat, 16-Feb-2019 8:54pm EST
Clear
Clear
 Wind from NNW
Wind: NNW 13 mph , 20 km/h
Temperature: 21°F , -6°C
Wind Chill: 8°F , -13°C
Dew Point: 9°F , -13°C
Humidity: 58%
Barometer: 30.03 inHg , 1016.9 hPa
Clouds: Clear
Visibility: 10 miles , 16 km
2019/02/17 01:54 KBTV 170154Z 33011KT 10SM CLR M06/M13 A3003 RMK AO2 SLP173 T10611133
KMHT - Manchester, New Hampshire, USA
Distance from station: ESE 76mi, 123km
Updated: Sat, 16-Feb-2019 8:53pm EST
Clear
Clear
 Wind from NW
Wind: NW 12 mph , 19 km/h
Temperature: 30°F , -1°C
Wind Chill: 20°F , -7°C
Dew Point: 16°F , -9°C
Humidity: 55%
Barometer: 29.92 inHg , 1013.2 hPa
Clouds: Clear
Visibility: 10 miles , 16 km
2019/02/17 01:53 KMHT 170153Z 31010KT 10SM CLR M01/M09 A2992 RMK AO2 SLP150 T10111089 $
 
KMVL - Morrisville, Vermont, USA
Distance from station: N 77mi, 124km
Updated: Sat, 16-Feb-2019 8:54pm EST
Overcast
Overcast
 Wind from varies
Wind: varies 5 mph , 7 km/h
Temperature: 19°F , -7°C
Wind Chill: 12°F , -11°C
Dew Point: 9°F , -13°C
Humidity: 63%
Barometer: 30.00 inHg , 1015.9 hPa
Clouds: Overcast
Visibility: 10 miles , 16 km
Cloud details: Overcast 3300 ft
2019/02/17 01:54 KMVL 170154Z AUTO VRB04KT 10SM OVC033 M07/M13 A3000 RMK AO2 SLP170 T10721128